Terminal Aerodrome Forecast
Issued by NWS Mt. Holly, NJ

Home | Current Version | Previous Version | Text Only | Print | Product List | Glossary On
Versions: 1 2 3 4 5 6 7 8 9 10 11 12 13 14 15 16 17 18 19 20 21 22 23 24 25 26 27 28 29 30
842
FTUS41 KPHI 271730
TAFPHL
TAF
KPHL 271730Z 2718/2824 22008KT P6SM SCT045 OVC120
     FM272300 19005KT P6SM BKN045
     FM280400 16004KT P6SM BKN250
     FM281500 12007KT P6SM BKN035=

USA.gov is the U.S. government's official web portal to all federal, state and local government web resources and services.